Time;durP1;ratioP1;P1;durP2;ratioP2;P2;SDS_P1;SDS_P2;PMS_P1;PMS_P2;Temp;Humidity;BMP_temperature;BMP_pressure;BME280_temperature;BME280_humidity;BME280_pressure;Samples;Min_cycle;Max_cycle;Signal;HPM_P1;HPM_P2
2021/10/21 00:01:09;;;;;;;15.70;10.47;;;14.80;99.90;;;;;;5012874;28;20220;-67
2021/10/21 00:03:35;;;;;;;11.63;10.17;;;14.70;99.90;;;;;;5012643;28;20727;-67
2021/10/21 00:06:02;;;;;;;12.43;11.03;;;14.60;99.90;;;;;;5012657;28;20524;-67
2021/10/21 00:08:28;;;;;;;11.83;10.73;;;14.50;99.90;;;;;;5012371;28;20444;-67
2021/10/21 00:10:54;;;;;;;12.80;11.50;;;14.40;99.90;;;;;;5012782;28;20441;-67
2021/10/21 00:13:19;;;;;;;14.13;12.37;;;14.50;99.90;;;;;;5012716;28;20472;-67
2021/10/21 00:15:45;;;;;;;13.37;11.20;;;14.50;99.90;;;;;;5012742;28;20605;-67
2021/10/21 00:18:11;;;;;;;12.30;11.00;;;14.40;99.90;;;;;;5012156;28;20633;-67
2021/10/21 00:20:36;;;;;;;12.50;11.20;;;14.30;99.90;;;;;;5012358;28;20231;-67
2021/10/21 00:23:02;;;;;;;12.80;11.53;;;14.30;99.90;;;;;;5011842;28;20207;-67
2021/10/21 00:25:28;;;;;;;13.93;12.60;;;14.30;99.90;;;;;;5012697;28;20258;-67
2021/10/21 00:27:53;;;;;;;13.77;12.47;;;14.30;99.90;;;;;;5012147;28;20270;-67
2021/10/21 00:30:19;;;;;;;16.83;14.00;;;14.30;99.90;;;;;;5012476;28;20183;-67
2021/10/21 00:32:44;;;;;;;16.03;14.43;;;14.20;99.90;;;;;;5012327;28;20210;-67
2021/10/21 00:35:10;;;;;;;14.17;12.67;;;14.30;99.90;;;;;;5012146;28;20238;-68
2021/10/21 00:37:36;;;;;;;14.90;13.40;;;14.20;99.90;;;;;;5011758;28;20521;-67
2021/10/21 00:40:03;;;;;;;15.87;13.93;;;14.20;99.90;;;;;;5012198;28;20483;-68
2021/10/21 00:42:29;;;;;;;13.60;12.30;;;14.20;99.90;;;;;;4997823;28;20430;-68
2021/10/21 00:44:55;;;;;;;13.47;12.10;;;14.20;99.90;;;;;;5011956;28;21016;-69
2021/10/21 00:47:21;;;;;;;13.77;12.27;;;14.20;99.90;;;;;;5011611;28;20437;-68
2021/10/21 00:49:47;;;;;;;12.60;11.37;;;14.20;99.90;;;;;;5011916;28;20834;-69
2021/10/21 00:52:13;;;;;;;13.50;12.20;;;14.10;99.90;;;;;;5006911;28;20578;-68
2021/10/21 00:54:39;;;;;;;13.77;12.40;;;14.10;99.90;;;;;;5001239;28;20198;-68
2021/10/21 00:57:07;;;;;;;12.47;11.17;;;14.10;99.90;;;;;;5011783;28;20185;-68
2021/10/21 00:59:33;;;;;;;13.40;12.10;;;14.10;99.90;;;;;;5011599;28;20449;-68
2021/10/21 01:01:59;;;;;;;11.83;10.23;;;14.10;99.90;;;;;;5012049;28;20440;-68
2021/10/21 01:04:25;;;;;;;11.40;10.03;;;14.10;99.90;;;;;;5011961;28;20947;-68
2021/10/21 01:06:53;;;;;;;13.90;11.37;;;14.10;99.90;;;;;;5011980;28;20444;-68
2021/10/21 01:09:18;;;;;;;11.77;10.67;;;14.10;99.90;;;;;;5011247;28;20472;-68
2021/10/21 01:11:44;;;;;;;12.20;11.07;;;14.10;99.90;;;;;;5011690;28;20441;-68
2021/10/21 01:14:10;;;;;;;11.33;10.23;;;14.10;99.90;;;;;;5011773;28;20207;-68
2021/10/21 01:16:40;;;;;;;11.47;10.37;;;14.10;99.90;;;;;;5011800;28;20949;-68
2021/10/21 01:19:18;;;;;;;11.37;10.27;;;14.10;99.90;;;;;;5011476;28;20229;-68
2021/10/21 01:21:44;;;;;;;13.67;12.13;;;14.10;99.90;;;;;;5011535;28;20444;-69
2021/10/21 01:24:10;;;;;;;15.83;11.57;;;14.10;99.90;;;;;;5011061;28;20469;-69
2021/10/21 01:26:36;;;;;;;11.77;10.40;;;14.10;99.90;;;;;;5011947;28;21018;-69
2021/10/21 01:29:03;;;;;;;16.10;12.33;;;14.10;99.90;;;;;;5011501;28;20740;-69
2021/10/21 01:31:28;;;;;;;13.67;12.30;;;14.10;99.90;;;;;;5011476;28;20187;-69
2021/10/21 01:33:54;;;;;;;14.50;12.70;;;14.00;99.90;;;;;;5013515;28;20465;-69
2021/10/21 01:36:19;;;;;;;15.17;12.50;;;14.00;99.90;;;;;;5015432;28;20184;-69
2021/10/21 01:38:45;;;;;;;13.73;12.00;;;14.00;99.90;;;;;;5010077;28;20202;-69
2021/10/21 01:41:10;;;;;;;16.23;12.53;;;14.00;99.90;;;;;;5005648;28;20182;-69
2021/10/21 01:43:44;;;;;;;13.87;12.50;;;13.90;99.90;;;;;;5014974;28;20215;-69
2021/10/21 01:46:10;;;;;;;12.30;10.90;;;14.00;99.90;;;;;;5015188;28;20306;-69
2021/10/21 01:48:36;;;;;;;13.87;11.60;;;13.90;99.90;;;;;;5015184;28;20947;-69
2021/10/21 01:51:03;;;;;;;12.70;11.50;;;13.90;99.90;;;;;;5009931;28;20431;-69
2021/10/21 01:53:29;;;;;;;12.37;11.17;;;13.90;99.90;;;;;;5012170;28;20453;-69
2021/10/21 01:55:54;;;;;;;10.47;9.57;;;13.90;99.90;;;;;;5015036;28;20491;-69
2021/10/21 01:58:20;;;;;;;11.10;10.00;;;13.90;99.90;;;;;;5010745;28;20653;-69
2021/10/21 02:00:45;;;;;;;11.10;8.47;;;14.00;99.90;;;;;;5011661;28;20187;-69
2021/10/21 02:03:11;;;;;;;10.53;9.53;;;14.10;99.90;;;;;;5014971;28;20222;-69
2021/10/21 02:05:37;;;;;;;8.70;8.00;;;14.10;99.90;;;;;;5014782;28;20190;-69
2021/10/21 02:08:03;;;;;;;9.70;8.60;;;14.10;99.90;;;;;;5014848;28;20191;-69
2021/10/21 02:10:28;;;;;;;7.60;6.87;;;14.10;99.90;;;;;;5014848;28;20269;-69
2021/10/21 02:12:54;;;;;;;10.70;8.33;;;14.10;99.90;;;;;;5014869;28;20560;-70
2021/10/21 02:15:20;;;;;;;9.37;7.27;;;14.10;99.90;;;;;;5000373;28;20700;-70
2021/10/21 02:17:46;;;;;;;9.33;7.83;;;14.10;99.90;;;;;;5014445;28;20179;-69
2021/10/21 02:20:12;;;;;;;8.50;7.70;;;14.10;99.90;;;;;;5014786;28;20989;-69
2021/10/21 02:22:39;;;;;;;8.00;7.20;;;14.10;99.90;;;;;;5013266;28;20171;-69
2021/10/21 02:25:07;;;;;;;7.30;6.60;;;14.10;99.90;;;;;;5014546;28;20943;-69
2021/10/21 02:27:33;;;;;;;7.40;6.70;;;14.10;99.90;;;;;;5014212;28;20429;-69
2021/10/21 02:29:59;;;;;;;6.80;6.20;;;14.10;99.90;;;;;;5014253;28;20887;-69
2021/10/21 02:32:24;;;;;;;6.50;5.97;;;14.10;99.90;;;;;;5014577;28;20202;-69
2021/10/21 02:34:50;;;;;;;7.70;6.90;;;14.10;99.90;;;;;;5013992;28;20466;-69
2021/10/21 02:37:15;;;;;;;6.50;5.90;;;14.10;99.90;;;;;;5014319;28;20186;-69
2021/10/21 02:39:41;;;;;;;7.33;6.07;;;14.10;99.90;;;;;;5014185;28;20334;-69
2021/10/21 02:42:06;;;;;;;6.37;5.77;;;14.10;99.90;;;;;;5014325;28;20186;-69
2021/10/21 02:44:32;;;;;;;6.20;5.30;;;14.20;99.90;;;;;;5013479;28;20199;-68
2021/10/21 02:46:57;;;;;;;5.40;4.90;;;14.20;99.90;;;;;;5014284;28;20232;-68
2021/10/21 02:49:23;;;;;;;5.77;5.27;;;14.30;99.90;;;;;;5013881;28;20672;-69
2021/10/21 02:51:49;;;;;;;6.00;5.60;;;14.30;99.90;;;;;;5014012;28;20183;-68
2021/10/21 02:54:14;;;;;;;5.50;5.00;;;14.30;99.90;;;;;;5014006;28;20735;-68
2021/10/21 02:56:40;;;;;;;5.70;5.20;;;14.30;99.90;;;;;;5013883;28;20183;-68
2021/10/21 02:59:05;;;;;;;6.33;5.00;;;14.40;99.90;;;;;;5013885;28;20593;-68
2021/10/21 03:01:31;;;;;;;5.63;5.20;;;14.40;99.90;;;;;;5013611;28;20181;-67
2021/10/21 03:03:58;;;;;;;6.27;5.70;;;14.40;99.90;;;;;;5013641;28;20245;-67
2021/10/21 03:06:23;;;;;;;6.10;5.60;;;14.40;99.90;;;;;;5013900;28;20171;-67
2021/10/21 03:08:49;;;;;;;4.90;4.50;;;14.40;99.90;;;;;;5009211;28;20513;-68
2021/10/21 03:11:15;;;;;;;6.57;5.20;;;14.40;99.90;;;;;;5008940;28;20225;-68
2021/10/21 03:13:40;;;;;;;5.20;4.80;;;14.40;99.90;;;;;;5013850;28;20271;-68
2021/10/21 03:16:06;;;;;;;6.60;5.97;;;14.40;99.90;;;;;;5013410;28;20253;-68
2021/10/21 03:18:31;;;;;;;6.33;5.67;;;14.40;99.90;;;;;;5013335;28;20183;-68
2021/10/21 03:20:57;;;;;;;5.00;4.60;;;14.40;99.90;;;;;;5013625;28;20629;-68
2021/10/21 03:23:26;;;;;;;4.93;4.47;;;14.40;99.90;;;;;;5013486;28;20261;-68
2021/10/21 03:25:52;;;;;;;4.37;3.97;;;14.30;99.90;;;;;;5013381;28;20258;-68
2021/10/21 03:28:18;;;;;;;5.13;4.50;;;14.40;99.90;;;;;;5013249;28;20448;-69
2021/10/21 03:30:44;;;;;;;3.20;2.90;;;14.40;99.90;;;;;;5013313;28;20434;-69
2021/10/21 03:33:10;;;;;;;5.23;3.67;;;14.30;99.90;;;;;;5013232;28;20465;-70
2021/10/21 03:35:36;;;;;;;3.10;2.90;;;14.30;99.90;;;;;;5027496;28;20190;-69
2021/10/21 03:38:02;;;;;;;3.97;3.07;;;14.30;99.90;;;;;;5032069;28;20424;-69
2021/10/21 03:40:27;;;;;;;3.00;2.70;;;14.20;99.90;;;;;;5013395;28;20197;-69
2021/10/21 03:42:53;;;;;;;3.60;2.00;;;14.20;99.90;;;;;;5013246;28;20434;-69
2021/10/21 03:45:18;;;;;;;2.73;2.53;;;14.10;99.90;;;;;;5013079;28;20694;-68
2021/10/21 03:47:44;;;;;;;2.00;1.90;;;14.10;99.90;;;;;;5012999;28;20318;-69
2021/10/21 03:50:09;;;;;;;4.30;2.30;;;14.10;99.90;;;;;;5012701;28;20550;-68
2021/10/21 03:52:35;;;;;;;2.10;2.00;;;14.10;99.90;;;;;;5012845;28;20676;-69
2021/10/21 03:55:01;;;;;;;3.47;1.63;;;14.00;99.90;;;;;;5012612;28;20199;-68
2021/10/21 03:57:27;;;;;;;3.30;2.20;;;14.00;99.90;;;;;;5011548;28;20444;-68
2021/10/21 03:59:52;;;;;;;4.37;1.80;;;14.00;99.90;;;;;;5012815;28;20641;-68
2021/10/21 04:02:18;;;;;;;2.10;2.00;;;14.00;99.90;;;;;;5012780;28;20171;-70
2021/10/21 04:04:43;;;;;;;2.33;2.13;;;14.00;99.90;;;;;;5013401;28;20203;-68
2021/10/21 04:07:09;;;;;;;2.93;1.90;;;14.10;99.90;;;;;;5012690;28;20273;-68
2021/10/21 04:09:35;;;;;;;3.40;2.07;;;14.00;99.90;;;;;;5012313;28;20218;-67
2021/10/21 04:12:00;;;;;;;2.80;2.10;;;14.00;99.90;;;;;;5012581;28;20205;-67
2021/10/21 04:14:26;;;;;;;3.90;2.07;;;14.00;99.90;;;;;;5012029;28;20724;-67
2021/10/21 04:16:52;;;;;;;2.80;1.50;;;14.00;99.90;;;;;;5012552;28;20171;-67
2021/10/21 04:19:17;;;;;;;4.17;1.80;;;14.00;99.90;;;;;;5007793;28;20262;-67
2021/10/21 04:21:43;;;;;;;1.27;1.13;;;14.10;99.90;;;;;;5011870;28;20171;-68
2021/10/21 04:24:08;;;;;;;1.40;1.30;;;14.20;99.90;;;;;;5012282;28;20190;-70
2021/10/21 04:26:34;;;;;;;3.93;1.27;;;14.20;99.90;;;;;;5012513;28;20669;-68
2021/10/21 04:28:59;;;;;;;1.23;1.13;;;14.20;99.90;;;;;;5012593;28;20173;-68
2021/10/21 04:31:25;;;;;;;1.57;1.10;;;14.10;99.90;;;;;;5012442;28;20699;-68
2021/10/21 04:33:50;;;;;;;3.17;1.80;;;14.00;99.90;;;;;;5012063;28;20226;-68
2021/10/21 04:36:16;;;;;;;1.73;1.13;;;14.00;99.90;;;;;;5012585;28;20186;-68
2021/10/21 04:38:41;;;;;;;2.40;1.47;;;13.90;99.90;;;;;;5012071;28;20585;-68
2021/10/21 04:41:07;;;;;;;2.90;1.37;;;13.90;99.90;;;;;;5012508;28;20861;-68
2021/10/21 04:43:33;;;;;;;1.93;1.30;;;13.90;99.90;;;;;;5012076;28;20202;-68
2021/10/21 04:45:58;;;;;;;2.67;1.50;;;13.80;99.90;;;;;;5012016;28;20183;-69
2021/10/21 04:48:24;;;;;;;3.13;1.30;;;13.80;99.90;;;;;;5011972;28;20179;-68
2021/10/21 04:50:49;;;;;;;2.00;1.10;;;13.70;99.90;;;;;;5012093;28;20653;-68
2021/10/21 04:53:15;;;;;;;2.00;1.30;;;13.60;99.90;;;;;;5011910;28;20207;-68
2021/10/21 04:55:41;;;;;;;2.30;1.33;;;13.60;99.90;;;;;;5012168;28;20585;-68
2021/10/21 04:58:06;;;;;;;5.50;1.47;;;13.50;99.90;;;;;;5011372;28;20183;-67
2021/10/21 05:00:33;;;;;;;2.70;1.00;;;13.50;99.90;;;;;;5012023;28;20214;-68
2021/10/21 05:03:06;;;;;;;3.57;1.30;;;13.50;99.90;;;;;;5011648;28;20190;-67
2021/10/21 05:05:32;;;;;;;2.93;1.07;;;13.50;99.90;;;;;;5012055;28;20440;-68
2021/10/21 05:07:58;;;;;;;3.33;1.10;;;13.40;99.90;;;;;;5010917;28;20477;-68
2021/10/21 05:10:23;;;;;;;8.10;1.87;;;13.40;99.90;;;;;;5011745;28;20574;-68
2021/10/21 05:12:49;;;;;;;2.77;1.03;;;13.30;99.90;;;;;;5011499;28;20183;-68
2021/10/21 05:15:14;;;;;;;1.70;1.27;;;13.30;99.90;;;;;;5011593;28;20206;-68
2021/10/21 05:17:40;;;;;;;2.53;0.90;;;13.30;99.90;;;;;;5010943;28;20174;-68
2021/10/21 05:20:06;;;;;;;5.33;1.53;;;13.30;99.90;;;;;;5011658;28;20178;-68
2021/10/21 05:22:31;;;;;;;2.80;1.33;;;13.20;99.90;;;;;;5011814;28;20195;-68
2021/10/21 05:24:57;;;;;;;4.43;1.23;;;13.20;99.90;;;;;;5011862;28;20538;-68
2021/10/21 05:27:22;;;;;;;3.50;1.33;;;13.20;99.90;;;;;;5011316;28;20183;-68
2021/10/21 05:29:48;;;;;;;6.37;1.40;;;13.10;99.90;;;;;;5011295;28;20190;-68
2021/10/21 05:32:13;;;;;;;5.50;1.70;;;13.10;99.90;;;;;;5010964;28;20183;-69
2021/10/21 05:34:39;;;;;;;3.80;1.43;;;13.10;99.90;;;;;;5011221;28;20276;-69
2021/10/21 05:37:06;;;;;;;6.13;1.43;;;13.10;99.90;;;;;;5010783;28;20167;-69
2021/10/21 05:39:32;;;;;;;4.13;1.43;;;13.10;99.90;;;;;;5009384;28;20273;-69
2021/10/21 05:41:58;;;;;;;2.50;1.30;;;13.00;99.90;;;;;;5011272;28;20441;-69
2021/10/21 05:44:27;;;;;;;4.27;1.90;;;12.90;99.90;;;;;;5010868;28;20457;-69
2021/10/21 05:46:53;;;;;;;2.90;1.60;;;12.90;99.90;;;;;;5011144;28;20487;-68
2021/10/21 05:49:19;;;;;;;4.67;1.50;;;13.00;99.90;;;;;;5012275;28;20430;-69
2021/10/21 05:51:45;;;;;;;2.83;1.33;;;13.00;99.90;;;;;;5010636;28;20175;-69
2021/10/21 05:54:11;;;;;;;3.50;1.50;;;12.90;99.90;;;;;;5011057;28;20884;-69
2021/10/21 05:56:37;;;;;;;8.63;3.40;;;12.90;99.90;;;;;;5011275;28;20469;-70
2021/10/21 05:59:02;;;;;;;6.70;2.73;;;12.90;99.90;;;;;;5009673;28;20182;-69
2021/10/21 06:01:28;;;;;;;6.93;1.87;;;12.90;99.90;;;;;;5011297;28;20167;-69
2021/10/21 06:03:54;;;;;;;3.57;2.20;;;12.90;99.90;;;;;;5010730;28;20202;-69
2021/10/21 06:06:19;;;;;;;6.53;2.07;;;12.80;99.90;;;;;;5010362;28;20552;-69
2021/10/21 06:08:45;;;;;;;7.63;1.77;;;12.80;99.90;;;;;;5010919;28;20171;-69
2021/10/21 06:11:11;;;;;;;8.43;1.70;;;12.70;99.90;;;;;;5011292;28;20680;-69
2021/10/21 06:13:37;;;;;;;5.00;1.97;;;12.70;99.90;;;;;;5011318;28;20198;-69
2021/10/21 06:16:03;;;;;;;5.63;1.40;;;12.70;99.90;;;;;;5011353;28;20469;-69
2021/10/21 06:18:29;;;;;;;5.90;2.60;;;12.70;99.90;;;;;;5010467;28;20176;-69
2021/10/21 06:20:55;;;;;;;5.10;1.90;;;12.80;99.90;;;;;;5012674;28;20456;-69
2021/10/21 06:23:21;;;;;;;5.90;1.63;;;12.90;99.90;;;;;;5014434;28;20198;-69
2021/10/21 06:25:47;;;;;;;7.37;2.60;;;12.90;99.90;;;;;;5014402;28;20171;-69
2021/10/21 06:28:12;;;;;;;2.23;1.50;;;12.90;99.90;;;;;;5014148;28;20185;-69
2021/10/21 06:30:38;;;;;;;7.67;1.60;;;12.90;99.90;;;;;;5013756;28;20525;-69
2021/10/21 06:33:04;;;;;;;10.60;2.70;;;12.90;99.90;;;;;;5014509;28;20214;-71
2021/10/21 06:35:30;;;;;;;8.50;1.60;;;12.90;99.90;;;;;;5009810;28;20847;-71
2021/10/21 06:37:56;;;;;;;8.10;1.63;;;12.90;99.90;;;;;;5011543;28;20438;-71
2021/10/21 06:40:22;;;;;;;9.57;1.90;;;12.90;99.90;;;;;;5014211;28;20878;-70
2021/10/21 06:42:47;;;;;;;2.70;1.43;;;12.90;99.90;;;;;;5014335;28;20185;-64
2021/10/21 06:45:13;;;;;;;5.80;1.47;;;12.90;99.90;;;;;;5014405;28;20266;-65
2021/10/21 06:47:42;;;;;;;3.70;1.30;;;12.90;99.90;;;;;;5013784;28;20187;-68
2021/10/21 06:50:10;;;;;;;3.93;1.57;;;13.00;99.90;;;;;;5014070;28;20456;-68
2021/10/21 06:52:45;;;;;;;6.10;2.10;;;13.10;99.90;;;;;;5011629;28;20435;-72
2021/10/21 06:55:15;;;;;;;3.80;1.03;;;13.20;99.90;;;;;;5011841;28;20481;-68
2021/10/21 06:57:58;;;;;;;4.00;1.17;;;13.30;99.90;;;;;;5013151;28;20434;-68
2021/10/21 07:00:25;;;;;;;8.10;1.80;;;13.40;99.90;;;;;;5012023;28;20437;-68
2021/10/21 07:02:51;;;;;;;5.03;1.40;;;13.40;99.90;;;;;;5012936;28;20473;-68
2021/10/21 07:05:18;;;;;;;2.37;1.27;;;13.60;99.90;;;;;;5013803;28;20443;-68
2021/10/21 07:07:44;;;;;;;7.83;1.50;;;13.90;99.90;;;;;;5013556;28;20424;-68
2021/10/21 07:10:10;;;;;;;5.70;2.80;;;14.20;99.90;;;;;;5013767;28;20438;-68
2021/10/21 07:12:41;;;;;;;2.40;1.10;;;14.30;99.90;;;;;;5013283;28;20436;-68
2021/10/21 07:15:08;;;;;;;7.37;1.60;;;14.20;99.90;;;;;;5013487;28;20457;-68
2021/10/21 07:17:35;;;;;;;5.63;1.50;;;14.20;99.90;;;;;;5013439;28;21001;-68
2021/10/21 07:20:00;;;;;;;6.40;1.53;;;14.10;99.90;;;;;;5012913;28;20425;-68
2021/10/21 07:22:26;;;;;;;4.70;1.37;;;14.30;99.90;;;;;;5006615;28;20440;-68
2021/10/21 07:24:51;;;;;;;7.20;1.47;;;14.30;99.90;;;;;;5013223;28;20843;-68
2021/10/21 07:27:18;;;;;;;2.77;1.30;;;14.40;99.90;;;;;;5012859;28;20625;-68
2021/10/21 07:29:44;;;;;;;5.70;2.20;;;14.80;99.90;;;;;;5013002;28;20183;-69
2021/10/21 07:32:10;;;;;;;3.13;1.37;;;15.10;99.90;;;;;;5012969;28;20488;-68
2021/10/21 07:34:36;;;;;;;5.33;1.57;;;15.40;99.90;;;;;;5012863;28;20462;-67
2021/10/21 07:37:02;;;;;;;3.30;1.17;;;15.70;99.90;;;;;;5012950;28;20167;-68
2021/10/21 07:39:27;;;;;;;4.03;1.17;;;15.50;99.90;;;;;;5013355;28;20171;-68
2021/10/21 07:42:00;;;;;;;7.37;1.43;;;15.20;99.90;;;;;;5012872;28;20484;-67
2021/10/21 07:44:26;;;;;;;3.10;1.40;;;15.30;99.90;;;;;;5000106;28;20206;-68
2021/10/21 07:46:52;;;;;;;5.90;1.90;;;15.20;99.90;;;;;;5011367;28;21136;-68
2021/10/21 07:49:17;;;;;;;1.87;1.03;;;15.00;99.90;;;;;;5012412;28;20175;-68
2021/10/21 07:51:43;;;;;;;3.40;1.80;;;14.90;99.90;;;;;;5012665;28;20179;-68
2021/10/21 07:54:12;;;;;;;1.20;0.87;;;14.70;99.90;;;;;;5012255;28;20776;-69
2021/10/21 07:56:38;;;;;;;1.37;0.60;;;14.80;99.90;;;;;;5012138;28;20515;-68
2021/10/21 07:59:03;;;;;;;2.00;0.83;;;14.80;99.90;;;;;;5012337;28;20434;-68
2021/10/21 08:01:29;;;;;;;2.57;1.13;;;15.00;99.90;;;;;;5012130;28;20480;-68
2021/10/21 08:03:59;;;;;;;2.23;1.10;;;15.50;99.90;;;;;;5012268;28;20238;-68
2021/10/21 08:06:25;;;;;;;5.10;1.30;;;16.20;99.90;;;;;;5012746;28;20206;-68
2021/10/21 08:08:51;;;;;;;8.63;1.30;;;16.40;99.90;;;;;;5011697;28;20434;-68
2021/10/21 08:11:16;;;;;;;2.47;1.70;;;16.20;99.90;;;;;;5011939;28;20894;-69
2021/10/21 08:13:42;;;;;;;1.87;0.90;;;16.30;99.90;;;;;;5012106;28;20203;-69
2021/10/21 08:16:07;;;;;;;5.27;1.10;;;16.30;99.90;;;;;;5011867;28;20207;-68
2021/10/21 08:18:33;;;;;;;3.10;1.23;;;16.10;99.90;;;;;;5011868;28;20182;-69
2021/10/21 08:21:00;;;;;;;3.40;1.00;;;15.90;99.90;;;;;;5012158;28;20179;-68
2021/10/21 08:23:25;;;;;;;3.30;1.20;;;15.70;99.90;;;;;;5011986;28;20191;-69
2021/10/21 08:25:51;;;;;;;3.83;1.50;;;15.90;99.90;;;;;;5012161;28;20969;-68
2021/10/21 08:28:16;;;;;;;3.43;1.57;;;16.10;99.90;;;;;;5011766;28;20191;-68
2021/10/21 08:30:43;;;;;;;8.13;1.10;;;16.50;99.90;;;;;;5012097;28;20240;-67
2021/10/21 08:33:13;;;;;;;0.93;0.70;;;16.90;99.90;;;;;;5011248;28;20588;-68
2021/10/21 08:35:39;;;;;;;2.00;1.03;;;16.40;99.90;;;;;;5011550;28;20462;-69
2021/10/21 08:38:05;;;;;;;3.40;0.93;;;16.10;99.90;;;;;;5011799;28;20460;-70
2021/10/21 08:40:32;;;;;;;4.60;0.87;;;16.00;99.90;;;;;;5011965;28;20184;-67
2021/10/21 08:43:00;;;;;;;4.40;1.10;;;15.80;99.90;;;;;;5010404;28;20437;-67
2021/10/21 08:45:27;;;;;;;0.97;0.77;;;15.80;99.90;;;;;;5012091;28;20990;-68
2021/10/21 08:47:56;;;;;;;4.53;1.90;;;15.40;99.90;;;;;;5011628;28;20429;-67
2021/10/21 08:50:22;;;;;;;1.33;0.93;;;15.20;99.90;;;;;;5011955;28;20923;-67
2021/10/21 08:52:48;;;;;;;4.23;0.90;;;14.90;99.90;;;;;;5011336;28;20469;-67
2021/10/21 08:55:14;;;;;;;1.30;0.90;;;15.10;99.90;;;;;;5011858;28;20477;-67
2021/10/21 08:57:41;;;;;;;1.17;0.80;;;15.40;99.90;;;;;;5011542;28;20994;-67
2021/10/21 09:00:08;;;;;;;2.73;0.87;;;15.10;99.90;;;;;;5011162;28;20442;-68
2021/10/21 09:02:50;;;;;;;0.93;0.83;;;14.60;99.90;;;;;;5010358;28;20863;-68
2021/10/21 09:08:13;;;;;;;1.30;1.20;;;15.40;99.90;;;;;;5003958;28;20807;-68
2021/10/21 09:10:52;;;;;;;1.57;1.10;;;15.80;99.90;;;;;;5011295;28;20998;-67
2021/10/21 09:13:22;;;;;;;2.20;0.80;;;15.20;99.90;;;;;;5009024;28;20548;-67
2021/10/21 09:15:50;;;;;;;4.00;0.97;;;15.30;99.90;;;;;;5010952;28;20481;-67
2021/10/21 09:18:17;;;;;;;2.53;1.20;;;15.90;99.90;;;;;;5011183;28;20434;-67
2021/10/21 09:20:43;;;;;;;3.33;0.80;;;16.50;99.90;;;;;;5011308;28;20438;-68
2021/10/21 09:23:11;;;;;;;1.83;1.17;;;16.60;99.90;;;;;;5011428;28;20454;-67
2021/10/21 09:25:38;;;;;;;2.87;1.27;;;17.60;99.90;;;;;;5011123;28;20437;-68
2021/10/21 09:28:25;;;;;;;2.33;0.70;;;18.30;99.90;;;;;;5011236;28;20461;-67
2021/10/21 09:31:09;;;;;;;1.40;1.20;;;18.10;99.90;;;;;;5010512;28;20472;-66
2021/10/21 09:33:50;;;;;;;1.07;1.07;;;17.70;99.90;;;;;;5002179;28;20453;-67
2021/10/21 09:36:21;;;;;;;2.73;0.73;;;18.10;99.90;;;;;;5011608;28;20462;-68
2021/10/21 09:38:52;;;;;;;0.83;0.70;;;18.80;99.90;;;;;;5010678;28;20447;-68
2021/10/21 09:41:20;;;;;;;3.80;0.80;;;19.00;99.60;;;;;;5010232;28;20430;-67
2021/10/21 09:43:45;;;;;;;1.40;0.60;;;19.00;98.90;;;;;;5011245;28;20464;-67
2021/10/21 09:46:41;;;;;;;1.47;0.80;;;17.90;99.60;;;;;;5011248;28;20787;-68
2021/10/21 09:49:28;;;;;;;1.27;0.80;;;17.30;99.90;;;;;;5010538;28;20179;-66
2021/10/21 09:51:56;;;;;;;1.40;0.80;;;16.70;99.90;;;;;;5011609;28;20508;-67
2021/10/21 09:54:22;;;;;;;2.70;1.10;;;16.40;99.90;;;;;;5012036;28;21323;-67
2021/10/21 09:57:05;;;;;;;1.97;0.80;;;16.90;99.90;;;;;;5014917;28;20826;-68
2021/10/21 09:59:34;;;;;;;1.00;0.90;;;17.90;97.90;;;;;;5013684;28;20433;-67
2021/10/21 10:02:21;;;;;;;0.80;0.73;;;17.90;97.90;;;;;;5014685;28;20428;-67
2021/10/21 10:04:49;;;;;;;0.60;0.60;;;18.60;96.30;;;;;;5008776;28;20492;-67
2021/10/21 10:07:15;;;;;;;1.90;0.80;;;18.00;96.20;;;;;;5014444;28;20438;-66
2021/10/21 10:09:41;;;;;;;1.07;0.97;;;17.40;95.60;;;;;;5014816;28;20429;-67
2021/10/21 10:12:08;;;;;;;3.60;1.10;;;18.30;95.00;;;;;;5014152;28;20878;-67
2021/10/21 10:14:43;;;;;;;1.73;0.80;;;18.90;93.50;;;;;;5013709;28;20210;-69
2021/10/21 10:17:10;;;;;;;3.70;1.17;;;19.70;92.40;;;;;;5014919;28;20444;-67
2021/10/21 10:19:40;;;;;;;2.00;1.10;;;20.30;90.20;;;;;;5010050;28;20522;-67
2021/10/21 10:22:07;;;;;;;1.00;0.73;;;20.90;89.10;;;;;;5013569;28;20429;-68
2021/10/21 10:24:33;;;;;;;0.87;0.70;;;22.00;84.00;;;;;;5014369;28;20826;-66
2021/10/21 10:27:17;;;;;;;1.70;0.93;;;22.50;79.90;;;;;;5013983;28;20433;-66
2021/10/21 10:29:45;;;;;;;0.80;0.80;;;22.30;77.50;;;;;;5013701;28;21042;-67
2021/10/21 10:32:31;;;;;;;1.83;0.80;;;21.80;79.50;;;;;;5012775;28;20461;-71
2021/10/21 10:34:58;;;;;;;2.23;0.87;;;22.50;76.70;;;;;;5014409;28;20457;-70
2021/10/21 10:37:23;;;;;;;3.03;0.90;;;22.10;74.70;;;;;;5014270;28;20433;-70
2021/10/21 10:39:52;;;;;;;1.50;1.20;;;22.20;75.90;;;;;;5014225;28;20429;-70
2021/10/21 10:42:33;;;;;;;0.80;0.80;;;22.90;73.70;;;;;;5014279;28;20194;-68
2021/10/21 10:45:01;;;;;;;1.20;0.73;;;23.30;70.90;;;;;;5013000;28;20469;-68
2021/10/21 10:47:54;;;;;;;1.73;0.90;;;22.70;71.20;;;;;;5013019;28;20462;-68
2021/10/21 10:50:22;;;;;;;1.53;0.83;;;23.70;68.30;;;;;;4999382;28;20513;-68
2021/10/21 10:52:52;;;;;;;1.27;0.90;;;24.20;67.70;;;;;;5014088;28;20438;-68
2021/10/21 10:55:21;;;;;;;1.43;0.90;;;25.90;62.80;;;;;;5014039;28;20461;-69
2021/10/21 10:57:48;;;;;;;1.43;1.00;;;26.80;58.30;;;;;;5012114;28;20438;-68
2021/10/21 11:00:32;;;;;;;0.93;0.90;;;26.90;57.40;;;;;;5013287;28;20441;-68
2021/10/21 11:02:58;;;;;;;1.10;1.10;;;26.90;56.30;;;;;;5007860;28;20527;-68
2021/10/21 11:05:46;;;;;;;1.30;1.20;;;27.60;55.40;;;;;;5013437;28;20560;-68
2021/10/21 11:08:13;;;;;;;1.57;0.90;;;27.10;53.40;;;;;;5011465;28;20433;-68
2021/10/21 11:10:51;;;;;;;8.00;1.57;;;26.90;54.10;;;;;;5013376;28;20464;-68
2021/10/21 11:13:42;;;;;;;1.87;1.10;;;26.60;54.00;;;;;;5013597;28;20452;-68
2021/10/21 11:16:38;;;;;;;3.10;1.10;;;26.60;53.50;;;;;;5002484;28;20497;-68
2021/10/21 11:19:04;;;;;;;1.63;1.17;;;25.00;52.90;;;;;;5004244;28;20453;-68
2021/10/21 11:21:52;;;;;;;1.27;0.90;;;23.30;56.20;;;;;;5013362;28;20568;-68
2021/10/21 11:24:47;;;;;;;7.80;1.20;;;22.20;56.20;;;;;;5012212;28;20588;-68
2021/10/21 11:27:14;;;;;;;2.57;1.40;;;22.20;56.90;;;;;;5012215;28;20911;-68
2021/10/21 11:29:40;;;;;;;2.40;1.10;;;21.90;57.10;;;;;;5012951;28;20871;-68
2021/10/21 11:32:08;;;;;;;1.20;1.10;;;22.70;56.00;;;;;;5012457;28;20438;-68
2021/10/21 11:34:34;;;;;;;1.83;1.20;;;23.50;54.60;;;;;;5013093;28;20457;-68
2021/10/21 11:37:00;;;;;;;3.20;1.10;;;24.30;53.20;;;;;;5013016;28;20854;-67
2021/10/21 11:39:43;;;;;;;1.13;1.03;;;24.70;52.10;;;;;;5012511;28;20564;-68
2021/10/21 11:42:11;;;;;;;2.90;1.40;;;25.40;51.60;;;;;;5012776;28;20845;-68
2021/10/21 11:44:38;;;;;;;3.30;1.10;;;25.60;51.30;;;;;;5006874;28;20544;-68
2021/10/21 11:47:06;;;;;;;3.00;1.20;;;25.60;50.60;;;;;;5012447;28;20441;-68
2021/10/21 11:49:34;;;;;;;1.83;0.90;;;24.70;51.80;;;;;;5012827;28;20504;-67
2021/10/21 11:52:11;;;;;;;2.57;0.90;;;24.20;52.40;;;;;;5013553;28;20437;-68
2021/10/21 11:54:38;;;;;;;1.37;1.00;;;25.70;51.20;;;;;;5012388;28;20833;-68
2021/10/21 11:57:05;;;;;;;1.83;1.53;;;25.50;50.30;;;;;;5012915;28;20440;-68
2021/10/21 11:59:35;;;;;;;2.23;1.10;;;25.10;51.50;;;;;;5012979;28;20828;-67
2021/10/21 12:02:14;;;;;;;1.17;0.90;;;24.50;51.70;;;;;;5011835;28;20440;-67
2021/10/21 12:04:41;;;;;;;2.43;1.37;;;22.40;53.30;;;;;;5012597;28;20471;-67
2021/10/21 12:07:07;;;;;;;3.40;1.17;;;21.10;55.90;;;;;;5012004;28;21092;-67
2021/10/21 12:09:34;;;;;;;1.17;1.07;;;21.70;56.40;;;;;;5012200;28;20430;-68
2021/10/21 12:12:05;;;;;;;4.13;1.37;;;23.40;54.80;;;;;;5012380;28;20433;-68
2021/10/21 12:14:30;;;;;;;2.00;1.03;;;25.10;51.20;;;;;;5012032;28;20601;-68
2021/10/21 12:16:57;;;;;;;2.27;0.97;;;25.30;51.00;;;;;;5011771;28;20445;-67
2021/10/21 12:19:24;;;;;;;3.77;0.87;;;25.90;50.60;;;;;;5011429;28;20254;-68
2021/10/21 12:21:50;;;;;;;1.20;1.10;;;25.30;50.20;;;;;;5011941;28;20422;-67
2021/10/21 12:24:26;;;;;;;1.33;1.23;;;24.90;51.00;;;;;;5012412;28;20982;-68
2021/10/21 12:26:57;;;;;;;1.70;0.80;;;24.20;50.30;;;;;;5011545;28;20430;-67
2021/10/21 12:29:24;;;;;;;1.07;0.97;;;23.00;52.00;;;;;;5010324;28;20812;-67
2021/10/21 12:31:50;;;;;;;1.33;1.10;;;22.30;53.00;;;;;;5012121;28;20438;-68
2021/10/21 12:34:24;;;;;;;1.53;1.17;;;22.30;54.30;;;;;;5011869;28;20507;-67
2021/10/21 12:36:51;;;;;;;3.10;1.00;;;23.40;53.20;;;;;;5012010;28;20439;-67
2021/10/21 12:39:30;;;;;;;2.03;0.87;;;25.00;50.90;;;;;;5011791;28;20433;-67
2021/10/21 12:42:02;;;;;;;2.00;1.10;;;25.00;50.70;;;;;;5011753;28;20429;-67
2021/10/21 12:44:32;;;;;;;2.30;0.70;;;25.90;50.20;;;;;;5011953;28;21001;-67
2021/10/21 12:47:10;;;;;;;3.13;1.10;;;26.90;48.20;;;;;;5011748;28;20517;-66
2021/10/21 12:49:37;;;;;;;2.43;1.10;;;26.20;48.60;;;;;;5011420;28;20468;-67